sensor_id;sensor_type;location;lat;lon;timestamp;temperature;humidity
25937;DHT22;13733;51.178;4.450;2022-11-15T00:01:50;11.00;75.90
25937;DHT22;13733;51.178;4.450;2022-11-15T00:04:34;11.00;76.10
25937;DHT22;13733;51.178;4.450;2022-11-15T00:07:18;11.00;76.50
25937;DHT22;13733;51.178;4.450;2022-11-15T00:10:03;11.10;77.70
25937;DHT22;13733;51.178;4.450;2022-11-15T00:12:48;11.10;80.10
25937;DHT22;13733;51.178;4.450;2022-11-15T00:15:35;11.10;81.60
25937;DHT22;13733;51.178;4.450;2022-11-15T00:18:19;11.20;82.50
25937;DHT22;13733;51.178;4.450;2022-11-15T00:21:06;11.20;83.50
25937;DHT22;13733;51.178;4.450;2022-11-15T00:23:51;11.30;84.70
25937;DHT22;13733;51.178;4.450;2022-11-15T00:26:35;11.20;87.60
25937;DHT22;13733;51.178;4.450;2022-11-15T00:29:18;11.30;89.60
25937;DHT22;13733;51.178;4.450;2022-11-15T00:32:03;11.20;90.90
25937;DHT22;13733;51.178;4.450;2022-11-15T00:34:47;11.30;91.40
25937;DHT22;13733;51.178;4.450;2022-11-15T00:37:31;11.40;91.00
25937;DHT22;13733;51.178;4.450;2022-11-15T00:40:15;11.50;91.20
25937;DHT22;13733;51.178;4.450;2022-11-15T00:43:00;11.60;91.50
25937;DHT22;13733;51.178;4.450;2022-11-15T00:45:44;11.60;91.80
25937;DHT22;13733;51.178;4.450;2022-11-15T00:48:28;11.70;92.60
25937;DHT22;13733;51.178;4.450;2022-11-15T00:51:12;11.70;94.20
25937;DHT22;13733;51.178;4.450;2022-11-15T00:53:56;11.80;95.20
25937;DHT22;13733;51.178;4.450;2022-11-15T00:56:40;12.00;95.00
25937;DHT22;13733;51.178;4.450;2022-11-15T00:59:25;12.10;94.90
25937;DHT22;13733;51.178;4.450;2022-11-15T01:02:08;12.20;94.40
25937;DHT22;13733;51.178;4.450;2022-11-15T01:04:53;12.40;93.70
25937;DHT22;13733;51.178;4.450;2022-11-15T01:07:37;12.40;93.70
25937;DHT22;13733;51.178;4.450;2022-11-15T01:10:22;12.40;94.20
25937;DHT22;13733;51.178;4.450;2022-11-15T01:13:06;12.50;94.00
25937;DHT22;13733;51.178;4.450;2022-11-15T01:15:51;12.40;99.90
25937;DHT22;13733;51.178;4.450;2022-11-15T01:18:35;12.30;99.90
25937;DHT22;13733;51.178;4.450;2022-11-15T01:21:20;12.20;99.90
25937;DHT22;13733;51.178;4.450;2022-11-15T01:24:04;12.20;99.90
25937;DHT22;13733;51.178;4.450;2022-11-15T01:26:49;12.20;99.90
25937;DHT22;13733;51.178;4.450;2022-11-15T01:29:33;12.20;99.90
25937;DHT22;13733;51.178;4.450;2022-11-15T01:32:17;12.40;99.90
25937;DHT22;13733;51.178;4.450;2022-11-15T01:35:01;12.30;99.90
25937;DHT22;13733;51.178;4.450;2022-11-15T01:37:46;12.30;99.90
25937;DHT22;13733;51.178;4.450;2022-11-15T01:40:30;12.30;99.90
25937;DHT22;13733;51.178;4.450;2022-11-15T01:49:11;12.30;99.90
25937;DHT22;13733;51.178;4.450;2022-11-15T01:51:57;12.40;99.90
25937;DHT22;13733;51.178;4.450;2022-11-15T01:54:43;12.40;99.90
25937;DHT22;13733;51.178;4.450;2022-11-15T01:57:28;12.40;99.90
25937;DHT22;13733;51.178;4.450;2022-11-15T02:00:13;12.40;99.90
25937;DHT22;13733;51.178;4.450;2022-11-15T02:02:57;12.30;99.90
25937;DHT22;13733;51.178;4.450;2022-11-15T02:05:43;12.30;99.90
25937;DHT22;13733;51.178;4.450;2022-11-15T02:08:27;12.40;99.90
25937;DHT22;13733;51.178;4.450;2022-11-15T02:11:12;12.40;99.90
25937;DHT22;13733;51.178;4.450;2022-11-15T02:13:58;12.40;99.90
25937;DHT22;13733;51.178;4.450;2022-11-15T02:34:32;12.40;99.90
25937;DHT22;13733;51.178;4.450;2022-11-15T02:38:02;12.40;99.90
25937;DHT22;13733;51.178;4.450;2022-11-15T02:43:29;12.90;99.90
25937;DHT22;13733;51.178;4.450;2022-11-15T02:46:54;12.80;99.90
25937;DHT22;13733;51.178;4.450;2022-11-15T02:50:07;12.50;99.90
25937;DHT22;13733;51.178;4.450;2022-11-15T02:52:52;12.70;99.90
25937;DHT22;13733;51.178;4.450;2022-11-15T02:55:40;12.50;99.90
25937;DHT22;13733;51.178;4.450;2022-11-15T03:02:12;12.40;99.90
25937;DHT22;13733;51.178;4.450;2022-11-15T03:08:22;12.30;99.90
25937;DHT22;13733;51.178;4.450;2022-11-15T03:14:00;12.40;99.90
25937;DHT22;13733;51.178;4.450;2022-11-15T03:19:55;12.40;99.90
25937;DHT22;13733;51.178;4.450;2022-11-15T03:22:43;12.40;99.90
25937;DHT22;13733;51.178;4.450;2022-11-15T03:25:29;12.40;99.90
25937;DHT22;13733;51.178;4.450;2022-11-15T03:28:31;12.40;99.90
25937;DHT22;13733;51.178;4.450;2022-11-15T03:31:17;12.40;99.90
25937;DHT22;13733;51.178;4.450;2022-11-15T03:40:59;12.80;99.90
25937;DHT22;13733;51.178;4.450;2022-11-15T03:46:51;12.40;99.90
25937;DHT22;13733;51.178;4.450;2022-11-15T03:49:44;12.50;99.90
25937;DHT22;13733;51.178;4.450;2022-11-15T03:52:32;12.70;99.90
25937;DHT22;13733;51.178;4.450;2022-11-15T03:55:19;12.70;99.90
25937;DHT22;13733;51.178;4.450;2022-11-15T03:58:04;12.60;99.90
25937;DHT22;13733;51.178;4.450;2022-11-15T04:00:48;12.50;99.90
25937;DHT22;13733;51.178;4.450;2022-11-15T04:03:32;12.40;99.90
25937;DHT22;13733;51.178;4.450;2022-11-15T04:06:16;12.30;99.90
25937;DHT22;13733;51.178;4.450;2022-11-15T04:09:00;12.50;99.90
25937;DHT22;13733;51.178;4.450;2022-11-15T04:11:44;12.60;99.90
25937;DHT22;13733;51.178;4.450;2022-11-15T04:14:29;12.50;99.90
25937;DHT22;13733;51.178;4.450;2022-11-15T04:17:13;12.40;99.90
25937;DHT22;13733;51.178;4.450;2022-11-15T04:19:57;12.30;99.90
25937;DHT22;13733;51.178;4.450;2022-11-15T04:23:01;12.40;99.90
25937;DHT22;13733;51.178;4.450;2022-11-15T04:26:16;12.30;99.90
25937;DHT22;13733;51.178;4.450;2022-11-15T04:29:01;12.30;99.90
25937;DHT22;13733;51.178;4.450;2022-11-15T04:32:23;12.30;99.90
25937;DHT22;13733;51.178;4.450;2022-11-15T04:35:08;12.50;99.90
25937;DHT22;13733;51.178;4.450;2022-11-15T04:37:53;12.50;99.90
25937;DHT22;13733;51.178;4.450;2022-11-15T04:40:38;12.50;99.90
25937;DHT22;13733;51.178;4.450;2022-11-15T04:43:23;12.40;99.90
25937;DHT22;13733;51.178;4.450;2022-11-15T04:46:07;12.20;99.90
25937;DHT22;13733;51.178;4.450;2022-11-15T04:48:52;12.10;99.90
25937;DHT22;13733;51.178;4.450;2022-11-15T04:51:36;12.20;99.90
25937;DHT22;13733;51.178;4.450;2022-11-15T04:54:20;12.30;99.90
25937;DHT22;13733;51.178;4.450;2022-11-15T04:57:04;12.20;99.90
25937;DHT22;13733;51.178;4.450;2022-11-15T04:59:49;12.10;99.90
25937;DHT22;13733;51.178;4.450;2022-11-15T05:02:33;12.10;99.90
25937;DHT22;13733;51.178;4.450;2022-11-15T05:05:36;12.10;99.90
25937;DHT22;13733;51.178;4.450;2022-11-15T05:08:21;12.20;99.90
25937;DHT22;13733;51.178;4.450;2022-11-15T05:11:05;12.20;99.90
25937;DHT22;13733;51.178;4.450;2022-11-15T05:13:50;12.40;99.90
25937;DHT22;13733;51.178;4.450;2022-11-15T05:16:34;12.30;99.90
25937;DHT22;13733;51.178;4.450;2022-11-15T05:19:19;12.30;99.90
25937;DHT22;13733;51.178;4.450;2022-11-15T05:22:02;12.20;99.90
25937;DHT22;13733;51.178;4.450;2022-11-15T05:24:47;12.20;99.90
25937;DHT22;13733;51.178;4.450;2022-11-15T05:27:32;11.90;99.90
25937;DHT22;13733;51.178;4.450;2022-11-15T05:30:16;12.00;99.90
25937;DHT22;13733;51.178;4.450;2022-11-15T05:33:00;12.00;99.90
25937;DHT22;13733;51.178;4.450;2022-11-15T05:35:59;11.80;99.90
25937;DHT22;13733;51.178;4.450;2022-11-15T05:38:45;11.80;99.90
25937;DHT22;13733;51.178;4.450;2022-11-15T05:41:37;11.80;99.90
25937;DHT22;13733;51.178;4.450;2022-11-15T05:44:23;11.50;99.90
25937;DHT22;13733;51.178;4.450;2022-11-15T05:47:12;11.40;99.90
25937;DHT22;13733;51.178;4.450;2022-11-15T05:49:57;11.30;99.90
25937;DHT22;13733;51.178;4.450;2022-11-15T05:52:42;11.30;99.90
25937;DHT22;13733;51.178;4.450;2022-11-15T05:55:27;11.40;99.90
25937;DHT22;13733;51.178;4.450;2022-11-15T05:58:12;11.40;99.90
25937;DHT22;13733;51.178;4.450;2022-11-15T06:00:56;11.50;99.90
25937;DHT22;13733;51.178;4.450;2022-11-15T06:03:40;11.40;99.90
25937;DHT22;13733;51.178;4.450;2022-11-15T06:06:24;11.50;99.90
25937;DHT22;13733;51.178;4.450;2022-11-15T06:09:08;11.50;99.90
25937;DHT22;13733;51.178;4.450;2022-11-15T06:11:52;11.40;99.90
25937;DHT22;13733;51.178;4.450;2022-11-15T06:14:36;11.40;99.90
25937;DHT22;13733;51.178;4.450;2022-11-15T06:17:21;11.40;99.90
25937;DHT22;13733;51.178;4.450;2022-11-15T06:20:05;11.40;99.90
25937;DHT22;13733;51.178;4.450;2022-11-15T06:22:49;11.40;99.90
25937;DHT22;13733;51.178;4.450;2022-11-15T06:25:33;11.20;99.90
25937;DHT22;13733;51.178;4.450;2022-11-15T06:28:18;11.10;99.90
25937;DHT22;13733;51.178;4.450;2022-11-15T06:31:11;11.10;99.90
25937;DHT22;13733;51.178;4.450;2022-11-15T06:33:55;11.00;99.90
25937;DHT22;13733;51.178;4.450;2022-11-15T06:36:39;11.00;99.90
25937;DHT22;13733;51.178;4.450;2022-11-15T06:39:24;11.00;99.90
25937;DHT22;13733;51.178;4.450;2022-11-15T06:42:08;11.00;99.90
25937;DHT22;13733;51.178;4.450;2022-11-15T06:44:52;11.20;99.90
25937;DHT22;13733;51.178;4.450;2022-11-15T06:47:47;11.30;99.90
25937;DHT22;13733;51.178;4.450;2022-11-15T06:50:31;11.40;99.90
25937;DHT22;13733;51.178;4.450;2022-11-15T06:53:15;11.40;99.90
25937;DHT22;13733;51.178;4.450;2022-11-15T06:56:04;11.10;99.90
25937;DHT22;13733;51.178;4.450;2022-11-15T06:58:49;10.90;99.90
25937;DHT22;13733;51.178;4.450;2022-11-15T07:01:34;10.80;99.90
25937;DHT22;13733;51.178;4.450;2022-11-15T07:04:18;10.60;99.90
25937;DHT22;13733;51.178;4.450;2022-11-15T07:07:02;10.60;99.90
25937;DHT22;13733;51.178;4.450;2022-11-15T07:09:46;10.50;99.90
25937;DHT22;13733;51.178;4.450;2022-11-15T07:12:31;10.40;99.90
25937;DHT22;13733;51.178;4.450;2022-11-15T07:15:16;10.40;99.90
25937;DHT22;13733;51.178;4.450;2022-11-15T07:18:01;10.30;99.90
25937;DHT22;13733;51.178;4.450;2022-11-15T07:20:45;10.30;99.90
25937;DHT22;13733;51.178;4.450;2022-11-15T07:23:30;10.30;99.90
25937;DHT22;13733;51.178;4.450;2022-11-15T07:26:14;10.30;99.90
25937;DHT22;13733;51.178;4.450;2022-11-15T07:28:58;10.30;99.90
25937;DHT22;13733;51.178;4.450;2022-11-15T07:31:42;10.40;99.90
25937;DHT22;13733;51.178;4.450;2022-11-15T07:34:26;10.40;99.90
25937;DHT22;13733;51.178;4.450;2022-11-15T07:37:11;10.40;99.90
25937;DHT22;13733;51.178;4.450;2022-11-15T07:39:55;10.40;99.90
25937;DHT22;13733;51.178;4.450;2022-11-15T07:42:39;10.50;99.90
25937;DHT22;13733;51.178;4.450;2022-11-15T07:45:45;10.50;99.90
25937;DHT22;13733;51.178;4.450;2022-11-15T07:48:30;10.50;99.90
25937;DHT22;13733;51.178;4.450;2022-11-15T07:51:16;10.60;99.90
25937;DHT22;13733;51.178;4.450;2022-11-15T07:54:00;10.60;99.90
25937;DHT22;13733;51.178;4.450;2022-11-15T07:56:44;10.60;99.90
25937;DHT22;13733;51.178;4.450;2022-11-15T07:59:28;10.60;99.90
25937;DHT22;13733;51.178;4.450;2022-11-15T08:02:13;10.60;99.90
25937;DHT22;13733;51.178;4.450;2022-11-15T08:04:57;10.60;99.90
25937;DHT22;13733;51.178;4.450;2022-11-15T08:07:41;10.70;99.90
25937;DHT22;13733;51.178;4.450;2022-11-15T08:10:27;10.60;99.90
25937;DHT22;13733;51.178;4.450;2022-11-15T08:13:12;10.70;99.90
25937;DHT22;13733;51.178;4.450;2022-11-15T08:16:00;10.70;99.90
25937;DHT22;13733;51.178;4.450;2022-11-15T08:18:45;10.70;99.90
25937;DHT22;13733;51.178;4.450;2022-11-15T08:21:29;10.80;99.90
25937;DHT22;13733;51.178;4.450;2022-11-15T08:24:14;10.90;99.90
25937;DHT22;13733;51.178;4.450;2022-11-15T08:26:58;10.90;99.90
25937;DHT22;13733;51.178;4.450;2022-11-15T08:29:44;11.00;99.90
25937;DHT22;13733;51.178;4.450;2022-11-15T08:32:28;11.00;99.90
25937;DHT22;13733;51.178;4.450;2022-11-15T08:35:14;11.00;99.90
25937;DHT22;13733;51.178;4.450;2022-11-15T08:37:58;11.10;99.90
25937;DHT22;13733;51.178;4.450;2022-11-15T08:40:42;11.10;99.90
25937;DHT22;13733;51.178;4.450;2022-11-15T08:43:26;11.20;99.90
25937;DHT22;13733;51.178;4.450;2022-11-15T08:46:13;11.20;99.90
25937;DHT22;13733;51.178;4.450;2022-11-15T08:48:57;11.20;99.90
25937;DHT22;13733;51.178;4.450;2022-11-15T08:51:42;11.30;99.90
25937;DHT22;13733;51.178;4.450;2022-11-15T08:54:26;11.50;99.90
25937;DHT22;13733;51.178;4.450;2022-11-15T08:57:10;11.60;99.90
25937;DHT22;13733;51.178;4.450;2022-11-15T08:59:54;11.60;99.90
25937;DHT22;13733;51.178;4.450;2022-11-15T09:02:39;11.50;99.90
25937;DHT22;13733;51.178;4.450;2022-11-15T09:05:23;11.50;99.90
25937;DHT22;13733;51.178;4.450;2022-11-15T09:08:07;11.60;99.90
25937;DHT22;13733;51.178;4.450;2022-11-15T09:10:52;11.60;99.90
25937;DHT22;13733;51.178;4.450;2022-11-15T09:13:37;11.60;99.90
25937;DHT22;13733;51.178;4.450;2022-11-15T09:16:21;11.60;99.90
25937;DHT22;13733;51.178;4.450;2022-11-15T09:19:05;11.60;99.90
25937;DHT22;13733;51.178;4.450;2022-11-15T09:21:50;11.80;99.90
25937;DHT22;13733;51.178;4.450;2022-11-15T09:24:34;11.90;99.90
25937;DHT22;13733;51.178;4.450;2022-11-15T09:27:19;12.20;99.90
25937;DHT22;13733;51.178;4.450;2022-11-15T09:30:04;12.40;99.90
25937;DHT22;13733;51.178;4.450;2022-11-15T09:32:48;12.60;99.90
25937;DHT22;13733;51.178;4.450;2022-11-15T09:35:33;12.70;99.90
25937;DHT22;13733;51.178;4.450;2022-11-15T09:38:17;12.60;99.90
25937;DHT22;13733;51.178;4.450;2022-11-15T09:41:22;12.60;99.90
25937;DHT22;13733;51.178;4.450;2022-11-15T09:51:06;12.60;99.90
25937;DHT22;13733;51.178;4.450;2022-11-15T09:53:11;12.50;99.90
25937;DHT22;13733;51.178;4.450;2022-11-15T09:55:47;12.50;99.90
25937;DHT22;13733;51.178;4.450;2022-11-15T09:58:36;12.60;99.90
25937;DHT22;13733;51.178;4.450;2022-11-15T10:01:10;12.70;99.90
25937;DHT22;13733;51.178;4.450;2022-11-15T10:03:40;12.80;99.90
25937;DHT22;13733;51.178;4.450;2022-11-15T10:06:23;13.00;99.90
25937;DHT22;13733;51.178;4.450;2022-11-15T10:09:06;13.20;99.90
25937;DHT22;13733;51.178;4.450;2022-11-15T10:11:35;13.30;99.90
25937;DHT22;13733;51.178;4.450;2022-11-15T10:14:04;13.50;99.90
25937;DHT22;13733;51.178;4.450;2022-11-15T10:22:25;14.10;99.90
25937;DHT22;13733;51.178;4.450;2022-11-15T10:27:33;14.60;99.90
25937;DHT22;13733;51.178;4.450;2022-11-15T10:29:59;14.70;99.90
25937;DHT22;13733;51.178;4.450;2022-11-15T10:32:25;14.70;99.90
25937;DHT22;13733;51.178;4.450;2022-11-15T10:34:51;14.70;99.90
25937;DHT22;13733;51.178;4.450;2022-11-15T10:37:30;14.80;99.90
25937;DHT22;13733;51.178;4.450;2022-11-15T10:42:29;14.70;99.90
25937;DHT22;13733;51.178;4.450;2022-11-15T10:44:55;14.70;99.90
25937;DHT22;13733;51.178;4.450;2022-11-15T10:49:54;15.10;99.90
25937;DHT22;13733;51.178;4.450;2022-11-15T10:52:20;15.40;99.90
25937;DHT22;13733;51.178;4.450;2022-11-15T10:54:58;15.40;99.90
25937;DHT22;13733;51.178;4.450;2022-11-15T10:57:31;15.50;99.90
25937;DHT22;13733;51.178;4.450;2022-11-15T11:02:31;15.80;99.90
25937;DHT22;13733;51.178;4.450;2022-11-15T11:04:58;15.90;99.90
25937;DHT22;13733;51.178;4.450;2022-11-15T11:07:27;16.00;99.90
25937;DHT22;13733;51.178;4.450;2022-11-15T11:10:05;16.10;99.90
25937;DHT22;13733;51.178;4.450;2022-11-15T11:12:42;16.10;99.90
25937;DHT22;13733;51.178;4.450;2022-11-15T11:15:15;15.70;99.90
25937;DHT22;13733;51.178;4.450;2022-11-15T11:20:30;15.50;99.90
25937;DHT22;13733;51.178;4.450;2022-11-15T11:34:19;15.70;99.90
25937;DHT22;13733;51.178;4.450;2022-11-15T11:47:40;15.70;99.90
25937;DHT22;13733;51.178;4.450;2022-11-15T11:50:20;15.70;99.90
25937;DHT22;13733;51.178;4.450;2022-11-15T11:53:03;15.50;99.90
25937;DHT22;13733;51.178;4.450;2022-11-15T11:55:34;15.50;99.90
25937;DHT22;13733;51.178;4.450;2022-11-15T11:58:20;15.50;99.90
25937;DHT22;13733;51.178;4.450;2022-11-15T12:01:11;15.30;99.90
25937;DHT22;13733;51.178;4.450;2022-11-15T12:03:40;15.40;99.90
25937;DHT22;13733;51.178;4.450;2022-11-15T12:06:27;15.50;99.90
25937;DHT22;13733;51.178;4.450;2022-11-15T12:09:27;15.50;99.90
25937;DHT22;13733;51.178;4.450;2022-11-15T12:12:11;15.60;99.90
25937;DHT22;13733;51.178;4.450;2022-11-15T12:17:13;15.40;99.90
25937;DHT22;13733;51.178;4.450;2022-11-15T12:19:40;15.20;99.90
25937;DHT22;13733;51.178;4.450;2022-11-15T12:22:19;15.00;99.90
25937;DHT22;13733;51.178;4.450;2022-11-15T12:25:01;14.90;99.90
25937;DHT22;13733;51.178;4.450;2022-11-15T12:30:19;14.50;1.00
25937;DHT22;13733;51.178;4.450;2022-11-15T12:32:59;14.60;1.00
25937;DHT22;13733;51.178;4.450;2022-11-15T12:35:40;14.60;1.00
25937;DHT22;13733;51.178;4.450;2022-11-15T12:38:11;14.70;1.00
25937;DHT22;13733;51.178;4.450;2022-11-15T12:43:39;14.80;1.00
25937;DHT22;13733;51.178;4.450;2022-11-15T12:46:10;14.90;1.00
25937;DHT22;13733;51.178;4.450;2022-11-15T12:51:03;15.00;1.00
25937;DHT22;13733;51.178;4.450;2022-11-15T12:53:31;15.00;1.00
25937;DHT22;13733;51.178;4.450;2022-11-15T13:11:58;15.30;1.00
25937;DHT22;13733;51.178;4.450;2022-11-15T13:20:07;15.40;1.00
25937;DHT22;13733;51.178;4.450;2022-11-15T13:22:51;15.30;1.00
25937;DHT22;13733;51.178;4.450;2022-11-15T13:28:02;15.60;1.00
25937;DHT22;13733;51.178;4.450;2022-11-15T13:30:35;15.60;1.00
25937;DHT22;13733;51.178;4.450;2022-11-15T13:33:08;15.50;1.00
25937;DHT22;13733;51.178;4.450;2022-11-15T13:35:39;15.40;1.00
25937;DHT22;13733;51.178;4.450;2022-11-15T13:38:05;15.50;1.00
25937;DHT22;13733;51.178;4.450;2022-11-15T13:40:36;15.40;1.00
25937;DHT22;13733;51.178;4.450;2022-11-15T13:46:04;15.30;1.00
25937;DHT22;13733;51.178;4.450;2022-11-15T13:48:30;15.20;1.00
25937;DHT22;13733;51.178;4.450;2022-11-15T13:50:56;15.10;1.00
25937;DHT22;13733;51.178;4.450;2022-11-15T13:53:23;15.10;1.00
25937;DHT22;13733;51.178;4.450;2022-11-15T13:55:49;15.00;1.00
25937;DHT22;13733;51.178;4.450;2022-11-15T13:58:16;14.90;1.00
25937;DHT22;13733;51.178;4.450;2022-11-15T14:00:44;14.90;1.00
25937;DHT22;13733;51.178;4.450;2022-11-15T14:03:19;14.80;1.00
25937;DHT22;13733;51.178;4.450;2022-11-15T14:08:32;14.70;1.00
25937;DHT22;13733;51.178;4.450;2022-11-15T14:11:17;14.60;1.00
25937;DHT22;13733;51.178;4.450;2022-11-15T14:16:34;14.70;1.00
25937;DHT22;13733;51.178;4.450;2022-11-15T14:19:00;14.60;1.00
25937;DHT22;13733;51.178;4.450;2022-11-15T14:21:26;14.50;1.00
25937;DHT22;13733;51.178;4.450;2022-11-15T14:23:52;14.50;1.00
25937;DHT22;13733;51.178;4.450;2022-11-15T14:26:32;14.50;1.00
25937;DHT22;13733;51.178;4.450;2022-11-15T14:31:42;14.60;1.00
25937;DHT22;13733;51.178;4.450;2022-11-15T14:34:11;14.50;1.00
25937;DHT22;13733;51.178;4.450;2022-11-15T14:36:37;14.50;1.00
25937;DHT22;13733;51.178;4.450;2022-11-15T14:39:02;14.40;1.00
25937;DHT22;13733;51.178;4.450;2022-11-15T14:41:34;14.50;1.00
25937;DHT22;13733;51.178;4.450;2022-11-15T14:44:03;14.40;1.00
25937;DHT22;13733;51.178;4.450;2022-11-15T14:46:30;14.40;1.00
25937;DHT22;13733;51.178;4.450;2022-11-15T14:48:56;14.40;1.00
25937;DHT22;13733;51.178;4.450;2022-11-15T14:51:21;14.30;1.00
25937;DHT22;13733;51.178;4.450;2022-11-15T14:53:48;14.20;1.00
25937;DHT22;13733;51.178;4.450;2022-11-15T14:56:14;14.20;8.60
25937;DHT22;13733;51.178;4.450;2022-11-15T14:58:41;14.10;18.10
25937;DHT22;13733;51.178;4.450;2022-11-15T15:01:17;14.00;28.30
25937;DHT22;13733;51.178;4.450;2022-11-15T15:03:44;13.80;35.80
25937;DHT22;13733;51.178;4.450;2022-11-15T15:06:10;13.80;41.40
25937;DHT22;13733;51.178;4.450;2022-11-15T15:08:41;13.80;44.30
25937;DHT22;13733;51.178;4.450;2022-11-15T15:11:14;13.70;50.00
25937;DHT22;13733;51.178;4.450;2022-11-15T15:13:40;13.60;54.50
25937;DHT22;13733;51.178;4.450;2022-11-15T15:16:06;13.50;58.10
25937;DHT22;13733;51.178;4.450;2022-11-15T15:18:32;13.70;56.30
25937;DHT22;13733;51.178;4.450;2022-11-15T15:20:59;13.70;58.00
25937;DHT22;13733;51.178;4.450;2022-11-15T15:23:28;13.60;62.60
25937;DHT22;13733;51.178;4.450;2022-11-15T15:25:56;13.60;67.00
25937;DHT22;13733;51.178;4.450;2022-11-15T15:28:22;13.60;67.90
25937;DHT22;13733;51.178;4.450;2022-11-15T15:30:48;13.60;70.40
25937;DHT22;13733;51.178;4.450;2022-11-15T15:33:15;13.50;71.00
25937;DHT22;13733;51.178;4.450;2022-11-15T15:35:41;13.60;71.80
25937;DHT22;13733;51.178;4.450;2022-11-15T15:38:13;13.50;72.90
25937;DHT22;13733;51.178;4.450;2022-11-15T15:40:40;13.50;74.00
25937;DHT22;13733;51.178;4.450;2022-11-15T15:43:06;13.50;74.00
25937;DHT22;13733;51.178;4.450;2022-11-15T15:45:37;13.60;73.80
25937;DHT22;13733;51.178;4.450;2022-11-15T15:48:03;13.60;73.80
25937;DHT22;13733;51.178;4.450;2022-11-15T15:50:32;13.60;74.80
25937;DHT22;13733;51.178;4.450;2022-11-15T15:52:59;13.50;75.20
25937;DHT22;13733;51.178;4.450;2022-11-15T15:55:26;13.50;77.00
25937;DHT22;13733;51.178;4.450;2022-11-15T15:57:52;13.50;78.00
25937;DHT22;13733;51.178;4.450;2022-11-15T16:00:21;13.50;78.10
25937;DHT22;13733;51.178;4.450;2022-11-15T16:02:51;13.40;79.30
25937;DHT22;13733;51.178;4.450;2022-11-15T16:05:20;13.50;79.20
25937;DHT22;13733;51.178;4.450;2022-11-15T16:07:46;13.50;79.20
25937;DHT22;13733;51.178;4.450;2022-11-15T16:10:32;13.60;78.70
25937;DHT22;13733;51.178;4.450;2022-11-15T16:13:03;13.40;81.20
25937;DHT22;13733;51.178;4.450;2022-11-15T16:15:33;13.30;79.70
25937;DHT22;13733;51.178;4.450;2022-11-15T16:18:00;13.30;83.10
25937;DHT22;13733;51.178;4.450;2022-11-15T16:20:33;13.20;85.20
25937;DHT22;13733;51.178;4.450;2022-11-15T16:23:00;13.20;86.90
25937;DHT22;13733;51.178;4.450;2022-11-15T16:25:26;13.20;88.10
25937;DHT22;13733;51.178;4.450;2022-11-15T16:27:52;13.20;89.10
25937;DHT22;13733;51.178;4.450;2022-11-15T16:30:20;13.10;89.90
25937;DHT22;13733;51.178;4.450;2022-11-15T16:32:46;13.00;91.00
25937;DHT22;13733;51.178;4.450;2022-11-15T16:35:14;13.10;91.40
25937;DHT22;13733;51.178;4.450;2022-11-15T16:37:40;13.00;91.50
25937;DHT22;13733;51.178;4.450;2022-11-15T16:40:31;13.00;91.90
25937;DHT22;13733;51.178;4.450;2022-11-15T16:42:58;12.90;92.90
25937;DHT22;13733;51.178;4.450;2022-11-15T16:45:27;12.90;93.60
25937;DHT22;13733;51.178;4.450;2022-11-15T16:47:54;12.90;93.90
25937;DHT22;13733;51.178;4.450;2022-11-15T16:50:23;12.90;94.30
25937;DHT22;13733;51.178;4.450;2022-11-15T16:52:58;12.90;94.20
25937;DHT22;13733;51.178;4.450;2022-11-15T16:55:27;12.90;94.60
25937;DHT22;13733;51.178;4.450;2022-11-15T16:57:55;12.90;94.80
25937;DHT22;13733;51.178;4.450;2022-11-15T17:00:24;13.00;94.60
25937;DHT22;13733;51.178;4.450;2022-11-15T17:02:50;13.10;94.10
25937;DHT22;13733;51.178;4.450;2022-11-15T17:05:21;13.00;99.90
25937;DHT22;13733;51.178;4.450;2022-11-15T17:07:49;13.00;99.90
25937;DHT22;13733;51.178;4.450;2022-11-15T17:10:17;13.00;99.90
25937;DHT22;13733;51.178;4.450;2022-11-15T17:12:43;12.90;99.90
25937;DHT22;13733;51.178;4.450;2022-11-15T17:15:11;12.90;99.90
25937;DHT22;13733;51.178;4.450;2022-11-15T17:17:41;12.90;99.90
25937;DHT22;13733;51.178;4.450;2022-11-15T17:20:16;12.90;99.90
25937;DHT22;13733;51.178;4.450;2022-11-15T17:22:50;12.90;99.90
25937;DHT22;13733;51.178;4.450;2022-11-15T17:25:17;13.10;99.90
25937;DHT22;13733;51.178;4.450;2022-11-15T17:27:43;13.10;99.90
25937;DHT22;13733;51.178;4.450;2022-11-15T17:30:11;13.00;99.90
25937;DHT22;13733;51.178;4.450;2022-11-15T17:32:38;12.90;99.90
25937;DHT22;13733;51.178;4.450;2022-11-15T17:35:04;13.00;99.90
25937;DHT22;13733;51.178;4.450;2022-11-15T17:37:34;12.90;99.90
25937;DHT22;13733;51.178;4.450;2022-11-15T17:39:59;12.80;99.90
25937;DHT22;13733;51.178;4.450;2022-11-15T17:42:26;12.80;99.90
25937;DHT22;13733;51.178;4.450;2022-11-15T17:44:52;12.80;99.90
25937;DHT22;13733;51.178;4.450;2022-11-15T17:47:19;12.90;99.90
25937;DHT22;13733;51.178;4.450;2022-11-15T17:49:44;12.90;99.90
25937;DHT22;13733;51.178;4.450;2022-11-15T17:52:10;12.80;99.90
25937;DHT22;13733;51.178;4.450;2022-11-15T17:54:36;12.80;99.90
25937;DHT22;13733;51.178;4.450;2022-11-15T17:57:02;12.80;99.90
25937;DHT22;13733;51.178;4.450;2022-11-15T17:59:28;12.90;99.90
25937;DHT22;13733;51.178;4.450;2022-11-15T18:01:54;12.80;99.90
25937;DHT22;13733;51.178;4.450;2022-11-15T18:04:19;12.90;99.90
25937;DHT22;13733;51.178;4.450;2022-11-15T18:06:45;13.00;99.90
25937;DHT22;13733;51.178;4.450;2022-11-15T18:09:11;13.00;99.90
25937;DHT22;13733;51.178;4.450;2022-11-15T18:11:39;12.90;99.90
25937;DHT22;13733;51.178;4.450;2022-11-15T18:14:13;13.00;99.90
25937;DHT22;13733;51.178;4.450;2022-11-15T18:16:40;13.00;99.90
25937;DHT22;13733;51.178;4.450;2022-11-15T18:19:06;12.90;99.90
25937;DHT22;13733;51.178;4.450;2022-11-15T18:21:39;12.90;99.90
25937;DHT22;13733;51.178;4.450;2022-11-15T18:24:22;12.90;99.90
25937;DHT22;13733;51.178;4.450;2022-11-15T18:26:47;12.90;99.90
25937;DHT22;13733;51.178;4.450;2022-11-15T18:29:13;12.80;99.90
25937;DHT22;13733;51.178;4.450;2022-11-15T18:31:39;12.90;99.90
25937;DHT22;13733;51.178;4.450;2022-11-15T18:34:05;12.80;99.90
25937;DHT22;13733;51.178;4.450;2022-11-15T18:36:31;12.80;99.90
25937;DHT22;13733;51.178;4.450;2022-11-15T18:38:59;12.90;99.90
25937;DHT22;13733;51.178;4.450;2022-11-15T18:41:26;12.90;99.90
25937;DHT22;13733;51.178;4.450;2022-11-15T18:44:00;12.90;99.90
25937;DHT22;13733;51.178;4.450;2022-11-15T18:46:28;12.90;99.90
25937;DHT22;13733;51.178;4.450;2022-11-15T18:48:56;12.90;99.90
25937;DHT22;13733;51.178;4.450;2022-11-15T18:51:25;12.90;99.90
25937;DHT22;13733;51.178;4.450;2022-11-15T18:53:53;13.00;99.90
25937;DHT22;13733;51.178;4.450;2022-11-15T18:56:20;13.00;99.90
25937;DHT22;13733;51.178;4.450;2022-11-15T18:58:49;13.10;99.90
25937;DHT22;13733;51.178;4.450;2022-11-15T19:01:16;13.00;99.90
25937;DHT22;13733;51.178;4.450;2022-11-15T19:03:44;13.10;99.90
25937;DHT22;13733;51.178;4.450;2022-11-15T19:06:14;13.10;99.90